Time;durP1;ratioP1;P1;durP2;ratioP2;P2;SDS_P1;SDS_P2;PMS_P1;PMS_P2;Temp;Humidity;BMP_temperature;BMP_pressure;BME280_temperature;BME280_humidity;BME280_pressure;Samples;Min_cycle;Max_cycle;Signal;HPM_P1;HPM_P2
2021/12/02 04:41:43;;;;;;;6.37;3.78;;;;;;;5.37;95.55;98944.28;6293407;27;20673;31
2021/12/02 04:44:46;;;;;;;8.05;4.25;;;;;;;5.43;95.98;98938.22;5303956;33;34301;-90
2021/12/02 04:47:48;;;;;;;6.22;3.97;;;;;;;5.55;94.62;98947.47;5305359;33;35212;-89
2021/12/02 04:50:52;;;;;;;7.45;4.10;;;;;;;5.56;94.87;98951.81;5305499;33;35208;-86
2021/12/02 04:53:55;;;;;;;7.57;4.18;;;;;;;5.55;95.20;98957.31;5305569;33;35181;-86
2021/12/02 04:56:58;;;;;;;7.60;4.07;;;;;;;5.57;95.15;98939.28;5320062;33;33561;-85
2021/12/02 05:00:01;;;;;;;8.00;4.28;;;;;;;5.49;95.91;98934.84;5309106;33;33587;-85
2021/12/02 05:03:04;;;;;;;6.75;4.87;;;;;;;5.48;96.40;98927.84;5305142;33;34705;-85
2021/12/02 05:06:07;;;;;;;7.50;3.92;;;;;;;5.44;95.56;98923.88;5305049;33;35147;-85
2021/12/02 05:09:10;;;;;;;6.15;4.15;;;;;;;5.41;96.08;98925.09;5305312;33;34488;-85
2021/12/02 05:12:13;;;;;;;7.97;4.37;;;;;;;5.40;95.38;98920.72;5304796;33;33642;-85
2021/12/02 05:15:16;;;;;;;7.03;4.43;;;;;;;5.41;95.24;98922.41;5305069;33;33530;-85
2021/12/02 05:18:18;;;;;;;11.05;5.47;;;;;;;5.47;94.63;98926.19;5304801;33;35416;-85
2021/12/02 05:21:21;;;;;;;10.20;4.93;;;;;;;5.45;95.08;98937.03;5304943;33;33601;-85
2021/12/02 05:24:24;;;;;;;7.57;4.57;;;;;;;5.53;94.39;98946.84;5305040;33;34446;-85
2021/12/02 05:27:27;;;;;;;9.73;5.43;;;;;;;5.56;93.37;98962.50;5306850;33;35286;-85
2021/12/02 05:30:29;;;;;;;9.30;5.32;;;;;;;5.50;93.97;98952.53;5307145;33;34671;-85
2021/12/02 05:33:33;;;;;;;12.05;5.82;;;;;;;5.52;95.16;98942.47;5307353;33;33684;-85
2021/12/02 05:36:35;;;;;;;7.55;4.60;;;;;;;5.45;96.03;98936.22;5306815;33;34720;-85
2021/12/02 05:39:38;;;;;;;10.52;5.20;;;;;;;5.48;95.85;98938.53;5306896;33;33809;-85
2021/12/02 05:42:41;;;;;;;7.00;4.53;;;;;;;5.51;95.58;98942.69;5307524;33;34306;-85
2021/12/02 05:45:44;;;;;;;9.80;4.87;;;;;;;5.54;96.12;98926.31;5325067;33;34684;-85
2021/12/02 05:48:46;;;;;;;9.77;5.10;;;;;;;5.51;96.96;98943.50;5324843;33;34038;-85
2021/12/02 05:51:49;;;;;;;7.78;4.55;;;;;;;5.58;96.81;98940.94;5329208;33;34243;-85
2021/12/02 05:54:52;;;;;;;9.50;5.30;;;;;;;5.55;97.46;98938.62;5337462;33;34968;-85
2021/12/02 05:57:55;;;;;;;9.48;4.90;;;;;;;5.50;98.19;98925.84;5325632;33;34234;-85
2021/12/02 06:00:58;;;;;;;6.80;4.82;;;;;;;5.52;98.38;98923.78;5324816;33;33660;-85
2021/12/02 06:04:01;;;;;;;12.50;5.65;;;;;;;5.49;99.03;98923.34;5325376;33;34029;-85
2021/12/02 06:07:05;;;;;;;9.68;5.82;;;;;;;5.52;99.11;98926.47;5325060;33;34054;-85
2021/12/02 06:10:08;;;;;;;8.70;5.18;;;;;;;5.46;99.02;98932.53;5325044;33;34059;-85
2021/12/02 06:13:11;;;;;;;10.52;5.18;;;;;;;5.38;98.88;98929.94;5325029;33;34037;-85
2021/12/02 06:16:15;;;;;;;9.88;5.37;;;;;;;5.52;97.51;98939.81;5324863;33;34500;-85
2021/12/02 06:19:17;;;;;;;9.02;5.68;;;;;;;5.55;97.15;98941.28;5324733;33;34146;-85
2021/12/02 06:22:20;;;;;;;11.82;5.85;;;;;;;5.55;97.32;98941.28;5325163;33;33933;-85
2021/12/02 06:28:27;;;;;;;11.02;6.40;;;;;;;5.56;97.13;98943.81;5325152;33;34026;-85
2021/12/02 06:31:29;;;;;;;7.20;5.75;;;;;;;5.58;96.58;98946.28;5324942;33;34644;-85
2021/12/02 06:34:32;;;;;;;8.20;5.90;;;;;;;5.58;97.20;98932.91;5322884;33;33530;-85
2021/12/02 06:37:35;;;;;;;11.80;6.37;;;;;;;5.57;97.08;98942.78;5324486;33;34659;-86
2021/12/02 06:40:40;;;;;;;10.75;6.28;;;;;;;5.49;97.59;98936.69;5325181;33;34055;-86
2021/12/02 06:43:43;;;;;;;9.38;5.95;;;;;;;5.54;97.72;98950.31;5325288;33;34139;-85
2021/12/02 06:46:46;;;;;;;7.55;5.82;;;;;;;5.51;97.45;98948.84;5332063;33;34593;-85
2021/12/02 06:49:50;;;;;;;11.73;6.07;;;;;;;5.62;96.94;98950.25;5332317;33;34343;-85
2021/12/02 06:52:53;;;;;;;9.02;5.65;;;;;;;5.59;96.05;98959.47;5333226;33;34058;-85
2021/12/02 06:55:56;;;;;;;12.43;7.10;;;;;;;5.62;96.29;98966.28;5321697;33;34232;-85
2021/12/02 06:58:59;;;;;;;12.05;7.03;;;;;;;5.60;96.48;98963.78;5308439;33;33712;-85
2021/12/02 07:02:02;;;;;;;13.40;7.03;;;;;;;5.59;96.29;98954.13;5311506;33;33969;-86
2021/12/02 07:05:08;;;;;;;10.48;7.15;;;;;;;5.62;96.20;98953.75;5322242;33;33651;-85
2021/12/02 07:08:11;;;;;;;16.58;8.20;;;;;;;5.68;96.17;98961.03;5315207;33;34520;-90
2021/12/02 07:11:16;;;;;;;14.65;7.78;;;;;;;5.63;96.02;98949.22;5309160;33;34252;-89
2021/12/02 07:14:20;;;;;;;14.00;7.57;;;;;;;5.61;96.67;98960.09;5317607;33;35119;-86
2021/12/02 07:17:24;;;;;;;13.05;7.90;;;;;;;5.55;97.67;98976.81;5306297;33;34869;-86
2021/12/02 07:20:30;;;;;;;14.93;8.05;;;;;;;5.51;98.48;98982.72;5291730;33;33778;-85
2021/12/02 07:23:33;;;;;;;16.60;7.97;;;;;;;5.50;97.62;98999.72;5303523;33;34555;-86
2021/12/02 07:26:41;;;;;;;15.88;8.10;;;;;;;5.57;97.06;98995.34;5306856;33;34358;-86
2021/12/02 07:29:44;;;;;;;13.43;7.95;;;;;;;5.58;96.40;98983.66;5306538;33;34533;-86
2021/12/02 07:32:52;;;;;;;19.37;8.85;;;;;;;5.57;96.93;98976.66;5307023;33;33597;-86
2021/12/02 07:35:54;;;;;;;18.58;8.70;;;;;;;5.55;96.73;98979.50;5306950;33;34595;-85
2021/12/02 07:39:01;;;;;;;17.40;8.50;;;;;;;5.49;96.68;98979.37;5306447;33;34069;-86
2021/12/02 07:42:04;;;;;;;21.17;9.50;;;;;;;5.48;98.00;98983.91;5308012;33;34753;-86
2021/12/02 07:45:08;;;;;;;21.77;9.40;;;;;;;5.40;98.48;98990.13;5303112;33;33972;-86
2021/12/02 07:48:14;;;;;;;27.27;9.82;;;;;;;5.35;100.00;98989.84;5296272;33;33994;-85
2021/12/02 07:51:17;;;;;;;22.50;9.57;;;;;;;5.32;100.00;98984.03;5303361;33;33707;-85
2021/12/02 07:54:22;;;;;;;21.05;10.25;;;;;;;5.26;100.00;98992.75;5293256;33;34016;-85
2021/12/02 07:57:25;;;;;;;19.33;10.07;;;;;;;5.20;100.00;98995.09;5307616;33;34549;-85
2021/12/02 08:00:29;;;;;;;17.42;8.95;;;;;;;5.25;100.00;98999.91;5309091;33;33615;-85
2021/12/02 08:03:32;;;;;;;19.67;9.52;;;;;;;5.38;100.00;99000.16;5296292;33;33650;-85
2021/12/02 08:06:34;;;;;;;19.48;9.15;;;;;;;5.17;100.00;98997.31;5288403;33;34624;-85
2021/12/02 08:09:37;;;;;;;17.33;9.18;;;;;;;5.18;100.00;99004.31;5296238;33;34614;-85
2021/12/02 08:12:46;;;;;;;19.45;9.55;;;;;;;5.19;100.00;99011.31;5291906;33;34420;-85
2021/12/02 08:15:49;;;;;;;15.98;9.05;;;;;;;5.21;100.00;99002.13;5288949;33;33861;-85
2021/12/02 08:18:52;;;;;;;18.17;9.90;;;;;;;5.23;100.00;99001.94;5303953;33;33923;-85
2021/12/02 08:21:56;;;;;;;17.83;10.90;;;;;;;5.21;100.00;98999.44;5291388;33;33864;-85
2021/12/02 08:24:59;;;;;;;18.70;9.60;;;;;;;5.19;100.00;99001.47;5295959;33;33170;-85
2021/12/02 08:28:03;;;;;;;20.42;10.07;;;;;;;5.36;100.00;99001.34;5294669;33;33742;-85
2021/12/02 08:31:07;;;;;;;19.62;10.40;;;;;;;5.36;100.00;99004.03;5290355;33;34398;-85
2021/12/02 08:34:10;;;;;;;23.05;10.98;;;;;;;5.45;100.00;99010.94;5313353;33;34233;-85
2021/12/02 08:37:13;;;;;;;21.00;10.88;;;;;;;5.60;100.00;99017.16;5299235;33;34205;-85
2021/12/02 08:40:19;;;;;;;20.55;11.15;;;;;;;5.56;100.00;99029.22;5296600;33;33597;-85
2021/12/02 08:43:21;;;;;;;17.17;10.45;;;;;;;5.55;100.00;99026.72;5306734;33;33965;-85
2021/12/02 08:46:26;;;;;;;19.27;10.60;;;;;;;5.54;100.00;99031.22;5305440;33;34162;-85
2021/12/02 08:49:29;;;;;;;23.83;11.02;;;;;;;5.54;100.00;99033.06;5306035;33;34010;-85
2021/12/02 08:52:32;;;;;;;21.58;10.95;;;;;;;5.50;100.00;99039.75;5304404;33;33844;-85
2021/12/02 08:55:36;;;;;;;24.15;13.77;;;;;;;5.51;100.00;99036.09;5304573;33;33478;-85
2021/12/02 08:58:39;;;;;;;33.10;25.23;;;;;;;5.54;100.00;99033.06;5291933;33;35210;-85
2021/12/02 09:01:42;;;;;;;30.75;21.73;;;;;;;5.49;100.00;99033.59;5294894;33;34140;-89
2021/12/02 09:04:45;;;;;;;23.48;14.80;;;;;;;5.44;100.00;99036.81;5299705;33;34261;-89
2021/12/02 09:07:48;;;;;;;22.33;13.18;;;;;;;5.53;100.00;99031.41;5309825;33;34107;-90
2021/12/02 09:11:11;;;;;;;26.02;13.32;;;;;;;5.56;100.00;99026.56;5306473;33;34779;-84
2021/12/02 09:14:13;;;;;;;23.08;12.80;;;;;;;5.65;100.00;99030.00;5293711;33;34102;-85
2021/12/02 09:17:17;;;;;;;23.15;12.45;;;;;;;5.83;100.00;99027.00;5291123;33;33887;-85
2021/12/02 09:20:20;;;;;;;26.08;13.10;;;;;;;5.86;100.00;99024.78;5295457;33;33753;-84
2021/12/02 09:23:23;;;;;;;48.08;13.75;;;;;;;6.00;100.00;99011.69;5298883;33;33752;-85
2021/12/02 09:26:26;;;;;;;36.10;14.52;;;;;;;6.01;100.00;99013.34;5307024;33;34419;-85
2021/12/02 09:29:29;;;;;;;45.10;14.82;;;;;;;6.08;100.00;99011.59;5299753;33;34987;-85
2021/12/02 09:32:33;;;;;;;29.40;12.18;;;;;;;6.07;100.00;99002.75;5301027;33;33860;-85
2021/12/02 09:35:36;;;;;;;25.60;12.30;;;;;;;6.12;100.00;99003.03;5294603;33;34453;-85
2021/12/02 09:38:39;;;;;;;26.87;12.23;;;;;;;6.10;100.00;98999.72;5296988;33;34401;-85
2021/12/02 09:41:44;;;;;;;28.42;13.35;;;;;;;6.07;100.00;98989.38;5292822;33;34426;-85
2021/12/02 09:44:48;;;;;;;24.27;13.13;;;;;;;6.13;100.00;98991.31;5304131;33;34450;-85
2021/12/02 09:47:52;;;;;;;28.08;13.40;;;;;;;5.99;100.00;98993.97;5300354;33;35209;-85
2021/12/02 09:51:22;;;;;;;25.30;12.93;;;;;;;5.98;100.00;98990.50;5297208;33;33993;-84
2021/12/02 09:54:44;;;;;;;23.92;13.25;;;;;;;5.97;100.00;98987.97;5294671;33;262909;-86
2021/12/02 09:57:52;;;;;;;22.65;12.30;;;;;;;5.90;100.00;98988.69;5300023;33;33818;-85
2021/12/02 10:00:59;;;;;;;23.20;14.45;;;;;;;5.86;100.00;98982.06;5304423;33;34643;-86
2021/12/02 10:04:04;;;;;;;24.73;14.15;;;;;;;5.87;100.00;98982.88;5304812;33;32604;-86
2021/12/02 10:07:12;;;;;;;24.40;14.77;;;;;;;5.91;100.00;98976.19;5302114;33;34342;-86
2021/12/02 10:10:24;;;;;;;23.38;14.60;;;;;;;5.99;100.00;98970.75;5292504;33;34251;-85
2021/12/02 10:14:22;;;;;;;28.30;15.95;;;;;;;6.03;100.00;98966.72;5302391;33;33827;-90
2021/12/02 10:17:16;;;;;;;26.87;15.73;;;;;;;6.01;100.00;98971.41;5309273;33;33517;-85
2021/12/02 10:20:35;;;;;;;26.87;14.63;;;;;;;6.09;100.00;98963.31;5294455;33;34981;-85
2021/12/02 10:23:46;;;;;;;24.70;14.40;;;;;;;6.27;100.00;98951.44;5300087;33;32532;-85
2021/12/02 10:26:52;;;;;;;20.90;12.43;;;;;;;6.15;100.00;98943.06;5301922;33;34675;-85
2021/12/02 10:30:23;;;;;;;21.98;12.85;;;;;;;6.19;100.00;98940.84;5300786;33;33658;-85
2021/12/02 10:33:38;;;;;;;22.67;13.13;;;;;;;6.22;100.00;98943.97;5301892;33;34351;-85
2021/12/02 10:36:44;;;;;;;22.48;11.40;;;;;;;6.20;100.00;98946.00;5301989;33;34839;-85
2021/12/02 10:40:03;;;;;;;24.40;12.27;;;;;;;6.23;100.00;98942.97;5297800;33;33858;-85
2021/12/02 10:43:08;;;;;;;19.92;11.25;;;;;;;6.22;100.00;98929.78;5297093;33;33722;-85
2021/12/02 10:46:13;;;;;;;20.17;11.20;;;;;;;6.27;100.00;98933.56;5303853;33;34582;-85
2021/12/02 10:49:17;;;;;;;19.25;11.90;;;;;;;6.27;100.00;98930.06;5302381;33;35282;-87
2021/12/02 10:52:26;;;;;;;22.17;13.65;;;;;;;6.24;100.00;98931.25;5322830;33;33779;-90
2021/12/02 10:55:31;;;;;;;22.67;13.37;;;;;;;6.27;100.00;98922.03;5317350;33;34015;-89
2021/12/02 10:58:34;;;;;;;24.65;14.90;;;;;;;6.19;100.00;98928.31;5299966;33;34264;-86
2021/12/02 11:01:38;;;;;;;23.52;14.32;;;;;;;6.20;100.00;98913.94;5292364;33;33853;-86
2021/12/02 11:04:46;;;;;;;21.95;13.70;;;;;;;6.27;100.00;98916.69;5302000;33;34000;-86
2021/12/02 11:08:02;;;;;;;19.23;12.40;;;;;;;6.26;100.00;98907.00;5299509;33;34205;-85
2021/12/02 11:11:22;;;;;;;16.95;10.65;;;;;;;6.28;100.00;98904.97;5297906;33;34762;-86
2021/12/02 11:14:29;;;;;;;16.52;9.23;;;;;;;6.31;100.00;98899.25;5305939;33;33863;-86
2021/12/02 11:17:38;;;;;;;13.18;8.23;;;;;;;6.27;100.00;98896.13;5309867;33;34416;-86
2021/12/02 11:20:43;;;;;;;17.00;8.60;;;;;;;6.24;100.00;98893.84;5295609;33;33176;-86
2021/12/02 11:23:47;;;;;;;14.23;8.20;;;;;;;6.25;100.00;98900.84;5298279;33;33870;-86
2021/12/02 11:27:15;;;;;;;9.73;6.32;;;;;;;6.18;100.00;98889.25;5300909;33;33464;-86
2021/12/02 11:30:24;;;;;;;10.73;7.22;;;;;;;6.14;100.00;98893.28;5299901;33;34265;-85
2021/12/02 11:33:35;;;;;;;11.43;6.62;;;;;;;6.08;100.00;98884.19;5315134;33;35229;-86
2021/12/02 11:36:38;;;;;;;9.82;6.30;;;;;;;6.06;100.00;98882.72;5300729;33;34530;-86
2021/12/02 11:39:41;;;;;;;11.50;7.00;;;;;;;6.03;100.00;98888.44;5297325;33;33967;-85
2021/12/02 11:42:45;;;;;;;12.98;7.18;;;;;;;6.09;100.00;98885.03;5293605;33;33543;-86
2021/12/02 11:45:50;;;;;;;12.45;7.32;;;;;;;6.09;100.00;98882.34;5294195;33;33619;-85
2021/12/02 11:48:53;;;;;;;11.60;6.78;;;;;;;6.12;100.00;98880.13;5305140;33;34132;-85
2021/12/02 11:51:56;;;;;;;15.68;7.22;;;;;;;6.15;100.00;98883.44;5289811;33;34715;-85
2021/12/02 11:55:06;;;;;;;11.70;7.22;;;;;;;6.15;100.00;98881.59;5298833;33;33927;-88
2021/12/02 11:58:09;;;;;;;10.93;6.53;;;;;;;6.15;100.00;98886.94;5310019;33;33837;-89
2021/12/02 12:01:18;;;;;;;10.77;6.18;;;;;;;6.10;100.00;98876.81;5309736;33;35433;-90
2021/12/02 12:04:22;;;;;;;9.80;6.45;;;;;;;5.98;100.00;98872.94;5301504;33;34293;-86
2021/12/02 12:07:38;;;;;;;9.60;5.80;;;;;;;6.03;100.00;98867.88;5303892;33;33618;-86
2021/12/02 12:10:41;;;;;;;9.00;5.47;;;;;;;6.00;100.00;98862.09;5304647;33;33602;-85
2021/12/02 12:13:53;;;;;;;8.73;5.53;;;;;;;6.08;100.00;98867.31;5305671;33;34059;-85
2021/12/02 12:17:06;;;;;;;8.30;5.00;;;;;;;6.04;100.00;98869.53;5307085;33;34416;-85
2021/12/02 12:20:11;;;;;;;8.88;5.05;;;;;;;5.97;100.00;98854.41;5306522;33;33642;-85
2021/12/02 12:23:28;;;;;;;7.75;5.18;;;;;;;5.93;100.00;98855.78;5315104;33;33971;-85
2021/12/02 12:26:31;;;;;;;9.43;5.87;;;;;;;5.86;100.00;98859.19;5299763;33;33775;-85
2021/12/02 12:29:34;;;;;;;6.57;4.35;;;;;;;5.93;100.00;98851.31;5296962;33;33904;-85
2021/12/02 12:33:35;;;;;;;7.00;4.18;;;;;;;5.93;100.00;98851.31;5300801;33;34198;-85
2021/12/02 12:36:41;;;;;;;6.53;4.18;;;;;;;5.91;100.00;98832.78;5297832;33;33972;-85
2021/12/02 12:40:10;;;;;;;5.68;3.60;;;;;;;5.96;100.00;98831.41;5299657;33;34232;-85
2021/12/02 12:43:13;;;;;;;5.07;3.78;;;;;;;5.90;100.00;98843.63;5302123;33;35092;-85
2021/12/02 12:46:19;;;;;;;4.68;3.65;;;;;;;6.00;100.00;98846.88;5303376;33;34038;-85
2021/12/02 12:49:22;;;;;;;6.55;4.07;;;;;;;6.00;100.00;98844.22;5312269;33;34826;-85
2021/12/02 12:52:25;;;;;;;5.43;4.20;;;;;;;5.98;100.00;98832.06;5307678;33;34057;-85
2021/12/02 12:55:29;;;;;;;9.15;4.55;;;;;;;6.07;100.00;98838.94;5310059;33;34162;-85
2021/12/02 12:58:35;;;;;;;6.12;4.25;;;;;;;6.08;100.00;98841.44;5305224;33;33790;-85
2021/12/02 13:01:40;;;;;;;8.68;4.68;;;;;;;6.00;100.00;98846.88;5303586;33;37089;-85
2021/12/02 13:04:53;;;;;;;9.95;5.03;;;;;;;5.98;100.00;98840.91;5305201;33;34186;-85
2021/12/02 13:08:20;;;;;;;10.45;5.53;;;;;;;6.00;100.00;98843.41;5307160;33;33878;-85
2021/12/02 13:11:30;;;;;;;7.28;5.30;;;;;;;5.98;100.00;98842.75;5303681;33;34034;-85
2021/12/02 13:14:34;;;;;;;7.40;4.97;;;;;;;6.04;100.00;98832.12;5296387;33;34684;-85
2021/12/02 13:18:28;;;;;;;7.85;5.10;;;;;;;6.00;100.00;98830.84;5303008;33;34674;-85
2021/12/02 13:21:34;;;;;;;8.82;5.87;;;;;;;5.99;100.00;98823.84;5283247;33;33719;-85
2021/12/02 13:24:38;;;;;;;11.50;7.28;;;;;;;5.95;100.00;98822.56;5312736;33;33656;-85
2021/12/02 13:27:41;;;;;;;14.50;8.43;;;;;;;5.98;100.00;98822.19;5300682;33;33723;-85
2021/12/02 13:30:48;;;;;;;13.98;7.95;;;;;;;5.97;100.00;98817.88;5302439;33;36021;-89
2021/12/02 13:34:04;;;;;;;12.90;7.18;;;;;;;5.94;100.00;98826.28;5304729;33;33962;-90
2021/12/02 13:37:09;;;;;;;11.30;6.95;;;;;;;5.94;100.00;98830.75;5306110;33;34147;-85
2021/12/02 13:40:14;;;;;;;9.98;6.80;;;;;;;5.92;100.00;98836.25;5310837;33;32848;-85
2021/12/02 13:43:17;;;;;;;8.50;5.37;;;;;;;5.88;100.00;98845.69;5303691;33;33653;-85
2021/12/02 13:46:29;;;;;;;8.55;5.75;;;;;;;5.90;100.00;98841.78;5309234;33;33965;-85
2021/12/02 13:49:36;;;;;;;12.15;6.35;;;;;;;5.99;100.00;98842.53;5311308;33;32283;-85
2021/12/02 13:52:48;;;;;;;5.40;4.62;;;;;;;5.99;100.00;98839.88;5305469;33;33583;-84
2021/12/02 13:55:53;;;;;;;8.20;5.50;;;;;;;5.92;100.00;98844.28;5299960;33;33976;-85
2021/12/02 13:59:14;;;;;;;7.85;5.20;;;;;;;5.83;100.00;98845.41;5304101;33;34363;-85
2021/12/02 14:02:21;;;;;;;6.18;4.90;;;;;;;5.82;100.00;98833.03;5308375;33;34332;-84
2021/12/02 14:05:26;;;;;;;6.12;4.60;;;;;;;5.73;100.00;98834.16;5299117;33;34016;-85
2021/12/02 14:08:29;;;;;;;7.90;5.22;;;;;;;5.63;100.00;98834.44;5307263;33;34431;-85
2021/12/02 14:11:32;;;;;;;6.22;4.80;;;;;;;5.67;100.00;98833.03;5311335;33;34377;-85
2021/12/02 14:14:35;;;;;;;7.37;4.97;;;;;;;5.61;100.00;98833.78;5301955;33;33902;-85
2021/12/02 14:17:55;;;;;;;7.18;5.00;;;;;;;5.59;100.00;98836.66;5306329;33;33912;-85
2021/12/02 14:21:09;;;;;;;7.10;4.83;;;;;;;5.71;100.00;98839.69;5301471;33;34217;-85
2021/12/02 14:24:14;;;;;;;6.87;4.97;;;;;;;5.61;100.00;98825.78;5314764;33;33843;-85
2021/12/02 14:27:17;;;;;;;7.65;5.20;;;;;;;5.60;100.00;98826.78;5306934;33;33789;-85
2021/12/02 14:30:20;;;;;;;8.27;5.05;;;;;;;5.56;100.00;98818.34;5307252;33;34070;-85
2021/12/02 14:33:26;;;;;;;8.07;5.32;;;;;;;5.57;100.00;98808.47;5307617;33;34208;-86
2021/12/02 14:36:40;;;;;;;10.55;6.22;;;;;;;5.52;100.00;98813.53;5304032;33;33781;-90
2021/12/02 14:39:43;;;;;;;9.57;5.82;;;;;;;5.51;100.00;98828.72;5294607;33;34066;-86
2021/12/02 14:42:46;;;;;;;11.70;6.75;;;;;;;5.51;100.00;98836.72;5299129;33;34779;-85
2021/12/02 14:45:51;;;;;;;11.93;7.47;;;;;;;5.55;100.00;98858.53;5298820;33;36888;-85
2021/12/02 14:49:11;;;;;;;14.25;7.72;;;;;;;5.53;100.00;98869.41;5301594;33;33599;-85
2021/12/02 14:52:20;;;;;;;10.82;7.05;;;;;;;5.53;100.00;98874.75;5305692;33;33622;-86
2021/12/02 14:55:29;;;;;;;15.88;8.63;;;;;;;5.63;100.00;98869.16;5305065;33;33906;-85
2021/12/02 14:58:33;;;;;;;15.77;9.32;;;;;;;5.61;100.00;98861.31;5307792;33;34896;-85
2021/12/02 15:02:04;;;;;;;14.40;8.88;;;;;;;5.63;100.00;98877.16;5303913;33;34508;-84
2021/12/02 15:05:17;;;;;;;14.77;8.63;;;;;;;5.68;100.00;98869.44;5307000;33;34349;-84
2021/12/02 15:08:20;;;;;;;15.70;8.88;;;;;;;5.72;100.00;98877.91;5300987;33;34066;-84
2021/12/02 15:11:32;;;;;;;12.05;8.10;;;;;;;5.63;100.00;98872.63;5317930;33;33969;-84
2021/12/02 15:14:36;;;;;;;13.82;8.93;;;;;;;5.57;100.00;98873.37;5292244;33;34453;-85
2021/12/02 15:17:48;;;;;;;13.52;8.43;;;;;;;5.46;100.00;98863.97;5291236;33;34396;-85
2021/12/02 15:20:53;;;;;;;12.18;7.90;;;;;;;5.44;100.00;98859.81;5296943;33;34011;-84
2021/12/02 15:23:56;;;;;;;13.27;8.32;;;;;;;5.43;100.00;98855.50;5304476;33;34015;-84
2021/12/02 15:27:11;;;;;;;15.23;8.88;;;;;;;5.39;100.00;98859.56;5294912;33;34414;-85
2021/12/02 15:30:13;;;;;;;14.98;9.02;;;;;;;5.49;100.00;98860.09;5300125;33;33977;-84
2021/12/02 15:33:21;;;;;;;13.95;8.48;;;;;;;5.43;100.00;98860.84;5299507;33;33881;-88
2021/12/02 15:36:31;;;;;;;18.48;9.95;;;;;;;5.45;100.00;98866.81;5299410;33;34194;-89
2021/12/02 15:39:34;;;;;;;12.77;8.32;;;;;;;5.49;100.00;98864.63;5316335;33;34144;-85
2021/12/02 15:42:37;;;;;;;18.17;10.10;;;;;;;5.50;100.00;98853.78;5291537;33;33846;-85
2021/12/02 15:45:41;;;;;;;16.15;9.82;;;;;;;5.44;100.00;98841.13;5296353;33;34325;-84
2021/12/02 15:48:46;;;;;;;15.35;9.20;;;;;;;5.44;100.00;98833.97;5312205;33;33910;-85
2021/12/02 15:51:48;;;;;;;15.77;9.88;;;;;;;5.46;100.00;98842.59;5303716;33;34954;-85
2021/12/02 15:54:51;;;;;;;17.10;9.93;;;;;;;5.41;100.00;98853.03;5301335;33;33345;-85
2021/12/02 15:57:54;;;;;;;18.15;10.18;;;;;;;5.44;100.00;98852.66;5298416;33;33831;-85
2021/12/02 16:01:00;;;;;;;16.67;10.10;;;;;;;5.42;100.00;98845.84;5301130;33;34491;-85
2021/12/02 16:04:09;;;;;;;14.52;9.63;;;;;;;5.37;100.00;98854.38;5289706;33;34657;-85
2021/12/02 16:07:13;;;;;;;14.32;9.45;;;;;;;5.45;100.00;98848.97;5289567;33;35024;-85
2021/12/02 16:13:38;;;;;;;21.27;13.52;;;;;;;5.51;100.00;98850.09;5288385;33;34227;-85
2021/12/02 16:16:41;;;;;;;20.75;12.48;;;;;;;5.50;100.00;98851.09;5288403;33;35306;-85
2021/12/02 16:19:44;;;;;;;21.62;12.57;;;;;;;5.40;100.00;98854.00;5287853;33;34611;-84
2021/12/02 16:22:48;;;;;;;19.80;13.15;;;;;;;5.38;100.00;98860.53;5287702;33;34152;-85
2021/12/02 16:25:50;;;;;;;18.85;12.57;;;;;;;5.39;100.00;98864.87;5287937;33;35224;-85
2021/12/02 16:28:53;;;;;;;19.70;13.35;;;;;;;5.35;100.00;98864.44;5287823;33;34021;-84
2021/12/02 16:31:55;;;;;;;21.95;13.70;;;;;;;5.32;100.00;98880.78;5287458;33;35106;-85
2021/12/02 16:34:58;;;;;;;21.83;13.77;;;;;;;5.34;100.00;98876.09;5287510;33;33876;-85
2021/12/02 16:38:01;;;;;;;23.60;14.25;;;;;;;5.28;100.00;98889.34;5287735;33;34398;-85
2021/12/02 16:41:04;;;;;;;25.00;14.52;;;;;;;5.29;100.00;98888.31;5287915;33;33545;-85
2021/12/02 16:44:07;;;;;;;26.45;14.82;;;;;;;5.24;100.00;98896.87;5287513;33;34647;-85
2021/12/02 16:47:10;;;;;;;25.20;14.68;;;;;;;5.24;100.00;98891.53;5287609;33;34544;-85
2021/12/02 16:50:15;;;;;;;23.00;14.30;;;;;;;5.22;100.00;98894.38;5287954;33;34216;-85
2021/12/02 16:53:19;;;;;;;21.90;14.55;;;;;;;5.23;100.00;98888.06;5287646;33;34105;-85
2021/12/02 16:56:23;;;;;;;26.50;15.60;;;;;;;5.26;100.00;98888.69;5287594;33;34282;-85
